KAIK/AIK METAR and TAF weather

Enter ICAO airport designator
Station Type Date Time Source
KAIK METAR 2020/06/02 17:55 UTC NOAA

KAIK 021755Z AUTO 29003KT 10SM SCT049 28/16 A3021 RMK AO2 T02800157 10283 20182


Station Type Date Time Source
KAIK Decoded METAR 2020/06/02 17:55 UTC NOAA

Station name not available
Jun 02, 2020 - 01:55 PM EDT / 2020.06.02 1755 UTC
Wind: from the WNW (290 degrees) at 3 MPH (3 KT):0
Visibility: 10 mile(s):0
Sky conditions: partly cloudy
Temperature: 82.4 F (28.0 C)
Dew Point: 60.3 F (15.7 C)
Relative Humidity: 47%
Pressure (altimeter): 30.21 in. Hg (1023 hPa)
ob: KAIK 021755Z AUTO 29003KT 10SM SCT049 28/16 A3021 RMK AO2 T02800157 10283 20182
cycle: 18

Station Type Date Time Source
KAIK TAF UTC NOAA

Error!

Example: see airport list